Extreme weather reports worldwide

Thunderstorm

Station
 
Location
 
Name
 
Wind
Knots
Gust
Knots
Vis
SM
Temp/Dew
C
Baro
inHg
METAR
 
TLH KTLH Tallahassee, US Tallahassee Regional Airport 8 20 2 26/22 30.06 KTLH 211912Z 11008G20KT 060V130 2SM +TSRA SCT035CB BKN075 26/23 A3006 RMK AO2 LTG DSNT NE TSB07 OCNL LTGIC OHD-N TS OHD-N MOV NW P0001 T02610228
KJES Jesup, US Jesup Wayne County Airport 12 17 4 23/21 30.15 KJES 211855Z AUTO 13012G17KT 4SM +TSRA SCT010 BKN022 OVC037 23/21 A3015 RMK AO2 LTG DSNT ALQS
GYN SBGO Goiânia, BR Santa Genoveva Airport 11 6.21 28/17 29.97 SBGO 211900Z 34011KT 9999 3000NE -TSRA BKN035 FEW040CB 28/17 Q1015
TVI KTVI Thomasville, US Thomasville Regional Airport 11 4 22/21 30.12 KTVI 211855Z AUTO 06011KT 4SM TSRA SCT013 BKN039 OVC047 22/21 A3012 RMK AO2 LTG DSNT ALQDS
MBY KMBY Moberly, US Omar N Bradley Airport 10 3 8/6 30.10 KMBY 211915Z AUTO 09010KT 3SM TS BKN008 OVC020 08/06 A3010 RMK AO2 P0002 LTG DSNT ALQDS

Station
 
Location
 
Name
 
Wind
Knots
Gust
Knots
Vis
SM
Temp/Dew
C
Baro
inHg
METAR
 
KVER Boonville, US Jesse Viertel Memorial Airport 9 5 / 30.09 KVER 211915Z AUTO 12009KT 5SM VCTSHZ OVC006 A3009 RMK AO2 LTG DSNT NW THRU NE
LFW DXXX Lomé, TG Lomé-Tokoin Airport 9 6.21 27/24 29.88 DXXX 211900Z 21009KT 9999 TS FEW011 FEW020CB 27/24 Q1012 NOSIG
K2J5 8 10 28/17 30.16 K2J5 211855Z AUTO 11008KT 10SM VCTS BKN039 BKN046 BKN055 28/17 A3016 RMK AO2 LTG DSNT SE T02820175
BQK KBQK Brunswick, US Brunswick Golden Isles Airport 8 10 24/21 30.12 KBQK 211855Z AUTO 05008KT 10SM VCTS SCT100 24/22 A3012 RMK AO2 LTG DSNT W AND NW P0005 T02430219
COO DBBB Cotonou, BJ Cadjehoun Airport 8 6.21 27/25 29.85 DBBB 211900Z 23008KT 9999 TS SCT012 FEW023CB 27/25 Q1011 NOSIG
TGU MHTG Tegucigalpa, HN Toncontín International Airport 7 6.21 28/22 29.94 MHTG 211900Z 03007KT 9999 TS SCT028TCU FEW030CB SCT080 28/22 Q1014 A2994 TEMPO 8000 TSVCSH
MHL KMHL Marshall, US Marshall Memorial Municipal Airport 6 2.5 8/8 30.10 KMHL 211915Z AUTO 11006KT 2 1/2SM TS BR OVC006 08/08 A3010 RMK AO2 LTG DSNT N THRU E
CGR SBCG Campo Grande, BR Campo Grande Airport 6 3.73 24/17 29.97 SBCG 211900Z 21006KT 160V240 6000 -TSRA BKN045 FEW050CB 24/17 Q1015
KBHC Baxley, US Baxley Municipal Airport 6 10 28/19 30.12 KBHC 211855Z AUTO 09006KT 10SM VCTS SCT034 SCT065 SCT095 28/19 A3012 RMK AO2 LTG DSNT SE
SAV KSAV Savannah, US Savannah Hilton Head International Airport 5 2.5 22/21 30.17 KSAV 211853Z 04005KT 2 1/2SM R10/5500VP6000FT VCTS -RA BR SCT006 BKN017CB OVC033 23/22 A3017 RMK AO2 LTG DSNT W RAB06 TSB31E46 SLP215 OCNL LTG W TS N-OHD-S MOV W P0027 T02280217
PVH SBPV Porto Velho, BR Governador Jorge Teixeira de Oliveira Airport 5 6.21 32/22 29.76 SBPV 211900Z 18005KT 9999 TS VCSH BKN030 FEW040CB 32/22 Q1008
DLM LTBS Dalaman, TR Dalaman International Airport 5 6.21 19/16 30.06 LTBS 211850Z 03005KT 9999 VCTS FEW018CB SCT020 BKN070 19/16 Q1018 TEMPO 4000 TSRA
OUA DFFD Ouagadougou, BF Ouagadougou Airport 5 6.21 30/21 29.88 DFFD 211900Z 17005KT 9999 TS FEW020 FEW030CB 30/21 Q1012 NOSIG
KEVU Maryville, US Northwest Missouri Regional Airport 4 5 8/7 30.12 KEVU 211815Z AUTO 08004KT 5SM -VCTSRA OVC046 08/07 A3012 RMK AO2 LTG DSNT NE THRU SE T00850076
KLWD 4 8 9/6 30.12 KLWD 211905Z AUTO 11004KT 8SM VCTS -RA FEW047 BKN055 OVC070 09/06 A3012 RMK AO2 LTG DSNT E AND SE RAB1856 P0001 T00940061
BSB SBBR Brasília, BR Presidente Juscelino Kubistschek International Airport 3 4.35 21/19 30.06 SBBR 211900Z 05003KT 7000 2000NE -RA VCTS BKN030 FEW040CB BKN080 21/19 Q1018 RETSRA
ABV DNAA Abuja, NG Nnamdi Azikiwe International Airport 3 6.21 23/22 29.91 DNAA 211900Z 02003KT 9999 TS FEW008 FEW019CB 23/22 Q1013 NOSIG
BOY DFOO Bobo Dioulasso, BF Bobo Dioulasso Airport 3 6.21 26/23 29.91 DFOO 211900Z VRB03KT 9999 TS FEW016 FEW033CB 26/23 Q1013
MGR KMGR Moultrie, US Moultrie Municipal Airport 3 10 26/21 30.10 KMGR 211850Z AUTO 09003KT 10SM TS CLR 26/21 A3010 RMK AO2 LTG DSNT E S AND W
OZZ GMMZ Ouarzazate, MA Ouarzazate Airport 2 4.97 13/11 30.09 GMMZ 211900Z VRB02KT 8000 TSRA BKN040 FEW050CB 13/11 Q1019 NOSIG
ROB GLRB Monrovia, LR Roberts International Airport 0 6.21 27/24 29.85 GLRB 211900Z 00000KT 9999 TS BKN014 FEW023CB 27/24 Q1011 NOSIG RMK CB-SE
CHQ LGSA Souda, GR Chania International Airport 0 4.97 15/14 30.12 LGSA 211850Z 00000KT 8000 TSRA FEW018CB OVC025 15/14 Q1020
PNH VDPP Phnom Penh, KH Phnom Penh International Airport 4.97 / VDPP 211900Z /////KT 8000 VCTS FEW017 SCT040 XX/XX Q////